Terminal Aerodrome Forecast
Issued by NWS Rapid City, SD

Home | Current Version | Previous Version | Text Only | Print | Product List | Glossary On
Versions: 1 2 3 4 5 6 7 8 9 10 11 12 13 14
000
FTUS43 KUNR 221100
TAFRAP
TAF
KRAP 221120Z 2212/2312 17011KT P6SM SCT250
     FM221600 17012G22KT P6SM SCT080 OVC150
     FM230100 15007KT P6SM BKN100=

USA.gov is the U.S. government's official web portal to all federal, state and local government web resources and services.